ARG1746 SABE-SARC
Flight info
| Callsign | ARG1746 |
|---|---|
| Flight time | N/A |
| Altitude | 37000 |
| Route | LANDA4B LANDA DCT GUA UL793 KILIP KILIP2Z |
| Aircraft | E190/M-SDE3GILORVW/S |
Departure
| Time | 2026-05-05 21:09 |
|---|---|
| Airport | Aeroparque Jorge Newbery (SABE) |
Arrival
| Time | N/A |
|---|---|
| Airport | Corrientes Airport (SARC) |
| Time | Latitude | Longitude | Altitude | Speed | Heading |
|---|---|---|---|---|---|
| 2026-05-05 20:48 | -34.55939 | -58.41038 | 26 ft | 0 kts | 39° |
| 2026-05-05 21:01 | -34.55949 | -58.41048 | 26 ft | 2 kts | 39° |
| 2026-05-05 21:01 | -34.55959 | -58.41059 | 26 ft | 0 kts | 39° |
| 2026-05-05 21:02 | -34.55969 | -58.41066 | 26 ft | 2 kts | 11° |
| 2026-05-05 21:02 | -34.55983 | -58.41063 | 26 ft | 1 kts | 329° |
| 2026-05-05 21:02 | -34.55987 | -58.41060 | 26 ft | 0 kts | 323° |
| 2026-05-05 21:04 | -34.55984 | -58.41063 | 26 ft | 2 kts | 323° |
| 2026-05-05 21:04 | -34.55961 | -58.41083 | 26 ft | 4 kts | 321° |
| 2026-05-05 21:05 | -34.55937 | -58.41118 | 26 ft | 6 kts | 307° |
| 2026-05-05 21:05 | -34.55898 | -58.41175 | 26 ft | 11 kts | 309° |
| 2026-05-05 21:05 | -34.55857 | -58.41256 | 26 ft | 10 kts | 266° |
| 2026-05-05 21:05 | -34.55898 | -58.41317 | 26 ft | 9 kts | 255° |
| 2026-05-05 21:06 | -34.55878 | -58.41401 | 26 ft | 11 kts | 295° |
| 2026-05-05 21:06 | -34.55839 | -58.41492 | 26 ft | 12 kts | 296° |
| 2026-05-05 21:06 | -34.55799 | -58.41590 | 26 ft | 14 kts | 297° |
| 2026-05-05 21:06 | -34.55743 | -58.41720 | 26 ft | 20 kts | 298° |
| 2026-05-05 21:07 | -34.55664 | -58.41873 | 26 ft | 21 kts | 303° |
| 2026-05-05 21:07 | -34.55580 | -58.42020 | 26 ft | 21 kts | 304° |
| 2026-05-05 21:07 | -34.55490 | -58.42173 | 26 ft | 22 kts | 308° |
| 2026-05-05 21:07 | -34.55410 | -58.42297 | 26 ft | 14 kts | 309° |
| 2026-05-05 21:08 | -34.55361 | -58.42401 | 26 ft | 14 kts | 281° |
| 2026-05-05 21:08 | -34.55367 | -58.42493 | 26 ft | 10 kts | 227° |
| 2026-05-05 21:08 | -34.55424 | -58.42471 | 26 ft | 15 kts | 113° |
| 2026-05-05 21:08 | -34.55653 | -58.42057 | 26 ft | 104 kts | 124° |
| 2026-05-05 21:09 | -34.56193 | -58.41095 | 187 ft | 159 kts | 123° |
| 2026-05-05 21:09 | -34.56753 | -58.39917 | 971 ft | 169 kts | 101° |
| 2026-05-05 21:09 | -34.56715 | -58.38454 | 1539 ft | 190 kts | 73° |
| 2026-05-05 21:09 | -34.56093 | -58.36917 | 1967 ft | 222 kts | 50° |
| 2026-05-05 21:10 | -34.54794 | -58.35660 | 2319 ft | 258 kts | 21° |
| 2026-05-05 21:10 | -34.52994 | -58.35464 | 3246 ft | 269 kts | 345° |
| 2026-05-05 21:10 | -34.51276 | -58.36285 | 4338 ft | 272 kts | 338° |
| 2026-05-05 21:10 | -34.49577 | -58.37029 | 5188 ft | 264 kts | 339° |
| 2026-05-05 21:11 | -34.47815 | -58.37717 | 6202 ft | 268 kts | 340° |
| 2026-05-05 21:11 | -34.46064 | -58.38364 | 7266 ft | 269 kts | 340° |
| 2026-05-05 21:11 | -34.44275 | -58.39007 | 8204 ft | 273 kts | 340° |
| 2026-05-05 21:11 | -34.42448 | -58.39652 | 9062 ft | 279 kts | 340° |
| 2026-05-05 21:12 | -34.40570 | -58.40310 | 9880 ft | 285 kts | 340° |
| 2026-05-05 21:12 | -34.38639 | -58.40984 | 10678 ft | 291 kts | 340° |
| 2026-05-05 21:12 | -34.36677 | -58.41667 | 11374 ft | 300 kts | 340° |
| 2026-05-05 21:12 | -34.34636 | -58.42377 | 12006 ft | 311 kts | 341° |
| 2026-05-05 21:13 | -34.32512 | -58.43115 | 12628 ft | 321 kts | 341° |
| 2026-05-05 21:13 | -34.30372 | -58.43858 | 13319 ft | 328 kts | 341° |
| 2026-05-05 21:13 | -34.28156 | -58.44626 | 14170 ft | 332 kts | 340° |
| 2026-05-05 21:13 | -34.25959 | -58.45388 | 14953 ft | 333 kts | 340° |
| 2026-05-05 21:14 | -34.23722 | -58.46163 | 15844 ft | 334 kts | 340° |
| 2026-05-05 21:14 | -34.21478 | -58.46940 | 16641 ft | 336 kts | 339° |
| 2026-05-05 21:14 | -34.19255 | -58.47709 | 17422 ft | 338 kts | 339° |
| 2026-05-05 21:14 | -34.16986 | -58.48495 | 18150 ft | 341 kts | 338° |
| 2026-05-05 21:15 | -34.14690 | -58.49290 | 18849 ft | 345 kts | 338° |
| 2026-05-05 21:15 | -34.12385 | -58.50087 | 19527 ft | 348 kts | 338° |
| 2026-05-05 21:15 | -34.10031 | -58.50900 | 20201 ft | 352 kts | 338° |
| 2026-05-05 21:15 | -34.07689 | -58.51708 | 20888 ft | 355 kts | 338° |
| 2026-05-05 21:16 | -34.05301 | -58.52532 | 21560 ft | 357 kts | 338° |
| 2026-05-05 21:16 | -34.02929 | -58.53350 | 22209 ft | 360 kts | 338° |
| 2026-05-05 21:16 | -34.00503 | -58.54186 | 22849 ft | 363 kts | 337° |
| 2026-05-05 21:16 | -33.98085 | -58.55019 | 23453 ft | 366 kts | 337° |
| 2026-05-05 21:17 | -33.95605 | -58.55873 | 24040 ft | 370 kts | 337° |
| 2026-05-05 21:17 | -33.93144 | -58.56720 | 24624 ft | 373 kts | 337° |
| 2026-05-05 21:17 | -33.90619 | -58.57467 | 25167 ft | 383 kts | 347° |
| 2026-05-05 21:17 | -33.87894 | -58.57647 | 25739 ft | 390 kts | 350° |
| 2026-05-05 21:18 | -33.85186 | -58.57771 | 26334 ft | 392 kts | 350° |
| 2026-05-05 21:18 | -33.82451 | -58.57892 | 26862 ft | 395 kts | 350° |
| 2026-05-05 21:18 | -33.79716 | -58.58012 | 27402 ft | 398 kts | 350° |
| 2026-05-05 21:18 | -33.76926 | -58.58134 | 27909 ft | 401 kts | 350° |
| 2026-05-05 21:19 | -33.74123 | -58.58256 | 28407 ft | 404 kts | 350° |
| 2026-05-05 21:19 | -33.71329 | -58.58378 | 28866 ft | 408 kts | 349° |
| 2026-05-05 21:19 | -33.68473 | -58.58501 | 29386 ft | 410 kts | 349° |
| 2026-05-05 21:19 | -33.65610 | -58.58626 | 29861 ft | 413 kts | 349° |
| 2026-05-05 21:20 | -33.62734 | -58.58752 | 30327 ft | 415 kts | 349° |
| 2026-05-05 21:20 | -33.59844 | -58.58877 | 30715 ft | 418 kts | 349° |
| 2026-05-05 21:20 | -33.56939 | -58.59003 | 31057 ft | 423 kts | 349° |
| 2026-05-05 21:20 | -33.53962 | -58.59133 | 31420 ft | 426 kts | 350° |
| 2026-05-05 21:21 | -33.51009 | -58.59260 | 31782 ft | 429 kts | 349° |
| 2026-05-05 21:21 | -33.47926 | -58.59393 | 32231 ft | 430 kts | 349° |
| 2026-05-05 21:21 | -33.44904 | -58.59524 | 32677 ft | 431 kts | 349° |
| 2026-05-05 21:21 | -33.41888 | -58.59655 | 33133 ft | 431 kts | 349° |
| 2026-05-05 21:22 | -33.38855 | -58.59786 | 33625 ft | 430 kts | 349° |
| 2026-05-05 21:22 | -33.35836 | -58.59916 | 34094 ft | 431 kts | 349° |
| 2026-05-05 21:22 | -33.32851 | -58.60045 | 34612 ft | 430 kts | 349° |
| 2026-05-05 21:22 | -33.29797 | -58.60177 | 35116 ft | 429 kts | 349° |
| 2026-05-05 21:23 | -33.26787 | -58.60306 | 35604 ft | 429 kts | 349° |
| 2026-05-05 21:23 | -33.23817 | -58.60434 | 36106 ft | 428 kts | 349° |
| 2026-05-05 21:23 | -33.20850 | -58.60561 | 36595 ft | 427 kts | 348° |
| 2026-05-05 21:23 | -33.17894 | -58.60687 | 36871 ft | 418 kts | 348° |
| 2026-05-05 21:24 | -33.11975 | -58.60946 | 36911 ft | 433 kts | 348° |
| 2026-05-05 21:24 | -33.05830 | -58.61210 | 36912 ft | 450 kts | 349° |
| 2026-05-05 21:25 | -32.99493 | -58.61524 | 36896 ft | 456 kts | 347° |
| 2026-05-05 21:25 | -32.93217 | -58.62068 | 36901 ft | 452 kts | 347° |
| 2026-05-05 21:26 | -32.86914 | -58.62600 | 36899 ft | 453 kts | 347° |
| 2026-05-05 21:26 | -32.80605 | -58.63131 | 36898 ft | 454 kts | 347° |
| 2026-05-05 21:27 | -32.74323 | -58.63658 | 36898 ft | 455 kts | 347° |